sensor_id;sensor_type;location;lat;lon;timestamp;pressure;altitude;pressure_sealevel;temperature;humidity
72587;BME280;60621;49.576;11.024;2022-10-16T00:00:38;98249.47;;;16.07;82.86
72587;BME280;60621;49.576;11.024;2022-10-16T00:01:39;98248.69;;;16.10;82.70
72587;BME280;60621;49.576;11.024;2022-10-16T00:02:41;98242.22;;;16.11;82.81
72587;BME280;60621;49.576;11.024;2022-10-16T00:03:43;98248.69;;;16.10;82.61
72587;BME280;60621;49.576;11.024;2022-10-16T00:04:45;98247.19;;;16.05;82.80
72587;BME280;60621;49.576;11.024;2022-10-16T00:05:47;98253.28;;;16.02;83.02
72587;BME280;60621;49.576;11.024;2022-10-16T00:06:49;98250.66;;;15.99;83.10
72587;BME280;60621;49.576;11.024;2022-10-16T00:07:50;98252.63;;;15.91;83.46
72587;BME280;60621;49.576;11.024;2022-10-16T00:08:52;98257.53;;;15.93;83.43
72587;BME280;60621;49.576;11.024;2022-10-16T00:09:53;98257.91;;;15.95;83.37
72587;BME280;60621;49.576;11.024;2022-10-16T00:11:04;98258.25;;;16.00;83.55
72587;BME280;60621;49.576;11.024;2022-10-16T00:12:06;98264.38;;;15.90;83.28
72587;BME280;60621;49.576;11.024;2022-10-16T00:13:08;98260.22;;;15.89;83.84
72587;BME280;60621;49.576;11.024;2022-10-16T00:14:13;98253.72;;;15.94;83.55
72587;BME280;60621;49.576;11.024;2022-10-16T00:15:15;98256.06;;;15.84;83.71
72587;BME280;60621;49.576;11.024;2022-10-16T00:16:17;98248.84;;;15.85;84.08
72587;BME280;60621;49.576;11.024;2022-10-16T00:17:19;98254.91;;;15.89;83.87
72587;BME280;60621;49.576;11.024;2022-10-16T00:18:20;98253.00;;;15.90;83.70
72587;BME280;60621;49.576;11.024;2022-10-16T00:19:22;98259.06;;;15.90;83.63
72587;BME280;60621;49.576;11.024;2022-10-16T00:20:24;98261.38;;;15.84;83.80
72587;BME280;60621;49.576;11.024;2022-10-16T00:21:28;98268.19;;;15.89;83.81
72587;BME280;60621;49.576;11.024;2022-10-16T00:22:29;98259.84;;;15.91;83.58
72587;BME280;60621;49.576;11.024;2022-10-16T00:23:31;98268.59;;;15.87;83.55
72587;BME280;60621;49.576;11.024;2022-10-16T00:24:33;98260.28;;;15.82;83.72
72587;BME280;60621;49.576;11.024;2022-10-16T00:25:35;98264.78;;;15.85;83.80
72587;BME280;60621;49.576;11.024;2022-10-16T00:26:38;98258.31;;;15.90;83.68
72587;BME280;60621;49.576;11.024;2022-10-16T00:27:40;98271.59;;;15.93;83.53
72587;BME280;60621;49.576;11.024;2022-10-16T00:28:41;98263.59;;;15.97;83.11
72587;BME280;60621;49.576;11.024;2022-10-16T00:29:43;98266.59;;;16.02;83.17
72587;BME280;60621;49.576;11.024;2022-10-16T00:30:44;98258.59;;;16.06;82.92
72587;BME280;60621;49.576;11.024;2022-10-16T00:31:46;98261.59;;;16.08;82.60
72587;BME280;60621;49.576;11.024;2022-10-16T00:32:47;98258.94;;;16.11;82.59
72587;BME280;60621;49.576;11.024;2022-10-16T00:33:49;98265.78;;;16.09;82.45
72587;BME280;60621;49.576;11.024;2022-10-16T00:34:51;98265.81;;;16.05;82.60
72587;BME280;60621;49.576;11.024;2022-10-16T00:35:57;98265.47;;;16.00;82.80
72587;BME280;60621;49.576;11.024;2022-10-16T00:36:59;98259.03;;;15.97;82.95
72587;BME280;60621;49.576;11.024;2022-10-16T00:38:01;98263.63;;;15.93;83.22
72587;BME280;60621;49.576;11.024;2022-10-16T00:39:02;98260.59;;;15.91;83.30
72587;BME280;60621;49.576;11.024;2022-10-16T00:40:04;98253.75;;;15.90;83.45
72587;BME280;60621;49.576;11.024;2022-10-16T00:41:07;98258.34;;;15.86;83.55
72587;BME280;60621;49.576;11.024;2022-10-16T00:42:15;98256.81;;;15.88;83.55
72587;BME280;60621;49.576;11.024;2022-10-16T00:44:54;98257.13;;;15.98;83.29
72587;BME280;60621;49.576;11.024;2022-10-16T00:45:58;98257.53;;;15.93;83.20
72587;BME280;60621;49.576;11.024;2022-10-16T00:46:59;98252.22;;;15.93;83.44
72587;BME280;60621;49.576;11.024;2022-10-16T00:48:01;98258.69;;;15.95;83.26
72587;BME280;60621;49.576;11.024;2022-10-16T00:49:15;98257.13;;;15.94;83.43
72587;BME280;60621;49.576;11.024;2022-10-16T00:50:28;98253.34;;;15.95;83.30
72587;BME280;60621;49.576;11.024;2022-10-16T00:51:51;98252.25;;;15.89;83.46
72587;BME280;60621;49.576;11.024;2022-10-16T00:52:54;98256.81;;;15.88;83.63
72587;BME280;60621;49.576;11.024;2022-10-16T00:53:56;98254.63;;;15.76;83.94
72587;BME280;60621;49.576;11.024;2022-10-16T00:54:58;98258.03;;;15.77;84.07
72587;BME280;60621;49.576;11.024;2022-10-16T00:56:00;98257.66;;;15.75;84.42
72587;BME280;60621;49.576;11.024;2022-10-16T00:57:04;98265.63;;;15.75;84.17
72587;BME280;60621;49.576;11.024;2022-10-16T00:58:07;98270.94;;;15.71;84.34
72587;BME280;60621;49.576;11.024;2022-10-16T00:59:16;98267.59;;;15.64;84.86
72587;BME280;60621;49.576;11.024;2022-10-16T01:00:22;98275.56;;;15.67;84.83
72587;BME280;60621;49.576;11.024;2022-10-16T01:01:23;98274.03;;;15.66;84.73
72587;BME280;60621;49.576;11.024;2022-10-16T01:02:25;98281.25;;;15.66;84.82
72587;BME280;60621;49.576;11.024;2022-10-16T01:03:33;98279.31;;;15.70;84.66
72587;BME280;60621;49.576;11.024;2022-10-16T01:04:37;98276.28;;;15.71;84.74
72587;BME280;60621;49.576;11.024;2022-10-16T01:05:45;98281.16;;;15.80;84.46
72587;BME280;60621;49.576;11.024;2022-10-16T01:07:19;98275.16;;;15.72;84.53
72587;BME280;60621;49.576;11.024;2022-10-16T01:08:35;98281.59;;;15.71;84.78
72587;BME280;60621;49.576;11.024;2022-10-16T01:11:25;98265.66;;;15.60;nan
72587;BME280;60621;49.576;11.024;2022-10-16T01:13:01;98266.81;;;15.63;85.19
72587;BME280;60621;49.576;11.024;2022-10-16T01:14:32;98261.09;;;15.72;85.06
72587;BME280;60621;49.576;11.024;2022-10-16T01:15:41;98265.25;;;15.76;84.82
72587;BME280;60621;49.576;11.024;2022-10-16T01:16:49;98259.16;;;15.76;84.70
72587;BME280;60621;49.576;11.024;2022-10-16T01:21:55;98264.94;;;15.64;85.10
72587;BME280;60621;49.576;11.024;2022-10-16T01:28:14;98268.72;;;15.62;85.88
72587;BME280;60621;49.576;11.024;2022-10-16T01:29:30;98260.38;;;15.64;85.41
72587;BME280;60621;49.576;11.024;2022-10-16T01:30:33;98257.69;;;15.60;85.57
72587;BME280;60621;49.576;11.024;2022-10-16T01:31:39;98255.44;;;15.55;85.86
72587;BME280;60621;49.576;11.024;2022-10-16T01:32:47;98256.53;;;15.61;85.64
72587;BME280;60621;49.576;11.024;2022-10-16T01:33:57;98262.25;;;15.67;85.42
72587;BME280;60621;49.576;11.024;2022-10-16T01:35:21;98273.63;;;15.71;85.27
72587;BME280;60621;49.576;11.024;2022-10-16T01:36:35;98266.81;;;15.63;85.23
72587;BME280;60621;49.576;11.024;2022-10-16T01:37:43;98275.56;;;15.64;85.48
72587;BME280;60621;49.576;11.024;2022-10-16T01:38:50;98280.88;;;15.64;85.62
72587;BME280;60621;49.576;11.024;2022-10-16T01:39:57;98277.06;;;15.65;85.38
72587;BME280;60621;49.576;11.024;2022-10-16T01:41:14;98284.66;;;15.62;85.53
72587;BME280;60621;49.576;11.024;2022-10-16T01:42:29;98272.50;;;15.69;85.63
72587;BME280;60621;49.576;11.024;2022-10-16T01:43:36;98284.63;;;15.73;85.14
72587;BME280;60621;49.576;11.024;2022-10-16T01:44:41;98288.81;;;15.74;85.10
72587;BME280;60621;49.576;11.024;2022-10-16T01:45:44;98277.81;;;15.69;85.23
72587;BME280;60621;49.576;11.024;2022-10-16T01:46:48;98284.66;;;15.66;85.32
72587;BME280;60621;49.576;11.024;2022-10-16T01:47:52;98282.38;;;15.72;85.37
72587;BME280;60621;49.576;11.024;2022-10-16T01:48:55;98283.06;;;15.79;84.63
72587;BME280;60621;49.576;11.024;2022-10-16T01:49:57;98288.72;;;15.85;84.41
72587;BME280;60621;49.576;11.024;2022-10-16T01:51:07;98291.44;;;15.81;84.56
72587;BME280;60621;49.576;11.024;2022-10-16T01:52:13;98294.03;;;15.88;84.21
72587;BME280;60621;49.576;11.024;2022-10-16T01:53:17;98298.22;;;15.90;84.29
72587;BME280;60621;49.576;11.024;2022-10-16T01:54:20;98298.63;;;15.84;84.13
72587;BME280;60621;49.576;11.024;2022-10-16T01:55:26;98303.19;;;15.84;84.51
72587;BME280;60621;49.576;11.024;2022-10-16T01:56:30;98297.47;;;15.85;84.43
72587;BME280;60621;49.576;11.024;2022-10-16T01:57:34;98303.19;;;15.84;84.62
72587;BME280;60621;49.576;11.024;2022-10-16T01:58:42;98302.84;;;15.78;84.82
72587;BME280;60621;49.576;11.024;2022-10-16T01:59:48;98303.19;;;15.80;84.96
72587;BME280;60621;49.576;11.024;2022-10-16T02:00:53;98302.03;;;15.85;84.65
72587;BME280;60621;49.576;11.024;2022-10-16T02:01:59;98309.22;;;15.92;84.26
72587;BME280;60621;49.576;11.024;2022-10-16T02:03:02;98301.66;;;15.86;84.39
72587;BME280;60621;49.576;11.024;2022-10-16T02:04:18;98301.69;;;15.83;84.94
72587;BME280;60621;49.576;11.024;2022-10-16T02:05:27;98307.00;;;15.83;84.59
72587;BME280;60621;49.576;11.024;2022-10-16T02:06:29;98305.84;;;15.84;84.75
72587;BME280;60621;49.576;11.024;2022-10-16T02:07:31;98308.50;;;15.84;84.49
72587;BME280;60621;49.576;11.024;2022-10-16T02:08:34;98305.09;;;15.80;84.73
72587;BME280;60621;49.576;11.024;2022-10-16T02:09:36;98302.81;;;15.82;84.74
72587;BME280;60621;49.576;11.024;2022-10-16T02:10:39;98302.81;;;15.82;84.93
72587;BME280;60621;49.576;11.024;2022-10-16T02:11:41;98303.59;;;15.82;84.94
72587;BME280;60621;49.576;11.024;2022-10-16T02:12:48;98300.13;;;15.89;84.54
72587;BME280;60621;49.576;11.024;2022-10-16T02:13:56;98305.41;;;15.93;84.35
72587;BME280;60621;49.576;11.024;2022-10-16T02:15:00;98312.25;;;15.90;84.47
72587;BME280;60621;49.576;11.024;2022-10-16T02:16:01;98313.41;;;15.93;84.46
72587;BME280;60621;49.576;11.024;2022-10-16T02:17:13;98308.09;;;15.85;84.66
72587;BME280;60621;49.576;11.024;2022-10-16T02:18:15;98311.16;;;15.84;84.92
72587;BME280;60621;49.576;11.024;2022-10-16T02:19:18;98306.59;;;15.84;84.88
72587;BME280;60621;49.576;11.024;2022-10-16T02:20:25;98301.28;;;15.84;84.88
72587;BME280;60621;49.576;11.024;2022-10-16T02:21:32;98307.75;;;15.87;84.64
72587;BME280;60621;49.576;11.024;2022-10-16T02:22:40;98301.66;;;15.86;84.73
72587;BME280;60621;49.576;11.024;2022-10-16T02:24:08;98295.66;;;15.72;85.14
72587;BME280;60621;49.576;11.024;2022-10-16T02:25:27;98298.28;;;15.75;85.26
72587;BME280;60621;49.576;11.024;2022-10-16T02:26:50;98307.03;;;15.76;85.10
72587;BME280;60621;49.576;11.024;2022-10-16T02:28:17;98298.34;;;15.68;85.36
72587;BME280;60621;49.576;11.024;2022-10-16T02:29:23;98296.78;;;15.71;85.56
72587;BME280;60621;49.576;11.024;2022-10-16T02:30:33;98304.00;;;15.70;85.52
72587;BME280;60621;49.576;11.024;2022-10-16T02:31:39;98297.94;;;15.73;85.61
72587;BME280;60621;49.576;11.024;2022-10-16T02:32:44;98292.97;;;15.75;85.35
72587;BME280;60621;49.576;11.024;2022-10-16T02:33:47;98291.44;;;15.78;85.25
72587;BME280;60621;49.576;11.024;2022-10-16T02:34:50;98289.53;;;15.82;85.16
72587;BME280;60621;49.576;11.024;2022-10-16T02:35:53;98294.81;;;15.85;85.03
72587;BME280;60621;49.576;11.024;2022-10-16T02:36:56;98294.03;;;15.88;84.78
72587;BME280;60621;49.576;11.024;2022-10-16T02:37:59;98298.97;;;15.90;84.55
72587;BME280;60621;49.576;11.024;2022-10-16T02:39:03;98294.84;;;15.82;84.90
72587;BME280;60621;49.576;11.024;2022-10-16T02:40:06;98296.75;;;15.81;84.99
72587;BME280;60621;49.576;11.024;2022-10-16T02:41:09;98293.34;;;15.77;85.11
72587;BME280;60621;49.576;11.024;2022-10-16T02:42:12;98291.84;;;15.76;85.06
72587;BME280;60621;49.576;11.024;2022-10-16T02:43:14;98292.22;;;15.75;85.35
72587;BME280;60621;49.576;11.024;2022-10-16T02:44:16;98291.44;;;15.78;85.07
72587;BME280;60621;49.576;11.024;2022-10-16T02:45:18;98294.84;;;15.82;85.05
72587;BME280;60621;49.576;11.024;2022-10-16T02:46:20;98297.13;;;15.80;84.90
72587;BME280;60621;49.576;11.024;2022-10-16T02:47:22;98300.94;;;15.75;85.01
72587;BME280;60621;49.576;11.024;2022-10-16T02:48:23;98302.50;;;15.73;85.34
72587;BME280;60621;49.576;11.024;2022-10-16T02:49:25;98304.00;;;15.74;85.31
72587;BME280;60621;49.576;11.024;2022-10-16T02:50:26;98300.19;;;15.71;85.25
72587;BME280;60621;49.576;11.024;2022-10-16T02:51:28;98304.00;;;15.77;85.50
72587;BME280;60621;49.576;11.024;2022-10-16T02:52:29;98293.72;;;15.76;85.26
72587;BME280;60621;49.576;11.024;2022-10-16T02:53:31;98293.31;;;15.84;84.88
72587;BME280;60621;49.576;11.024;2022-10-16T02:54:32;98293.34;;;15.77;84.86
72587;BME280;60621;49.576;11.024;2022-10-16T02:55:34;98289.53;;;15.82;84.99
72587;BME280;60621;49.576;11.024;2022-10-16T02:56:36;98294.44;;;15.87;84.58
72587;BME280;60621;49.576;11.024;2022-10-16T02:57:37;98298.25;;;15.82;84.63
72587;BME280;60621;49.576;11.024;2022-10-16T02:58:39;98292.59;;;15.77;85.09
72587;BME280;60621;49.576;11.024;2022-10-16T02:59:41;98299.81;;;15.76;84.90
72587;BME280;60621;49.576;11.024;2022-10-16T03:00:43;98303.59;;;15.79;85.15
72587;BME280;60621;49.576;11.024;2022-10-16T03:01:44;98307.03;;;15.76;85.18
72587;BME280;60621;49.576;11.024;2022-10-16T03:02:46;98305.16;;;15.76;85.11
72587;BME280;60621;49.576;11.024;2022-10-16T03:03:48;98305.50;;;15.75;85.06
72587;BME280;60621;49.576;11.024;2022-10-16T03:04:49;98309.38;;;15.67;85.40
72587;BME280;60621;49.576;11.024;2022-10-16T03:05:51;98302.50;;;15.69;85.42
72587;BME280;60621;49.576;11.024;2022-10-16T03:06:53;98308.97;;;15.72;85.49
72587;BME280;60621;49.576;11.024;2022-10-16T03:07:54;98310.47;;;15.69;85.10
72587;BME280;60621;49.576;11.024;2022-10-16T03:08:56;98314.69;;;15.67;85.35
72587;BME280;60621;49.576;11.024;2022-10-16T03:09:57;98315.81;;;15.66;85.49
72587;BME280;60621;49.576;11.024;2022-10-16T03:11:01;98307.81;;;15.69;85.47
72587;BME280;60621;49.576;11.024;2022-10-16T03:12:03;98307.81;;;15.73;85.37
72587;BME280;60621;49.576;11.024;2022-10-16T03:13:04;98315.38;;;15.78;84.93
72587;BME280;60621;49.576;11.024;2022-10-16T03:14:06;98307.03;;;15.76;85.09
72587;BME280;60621;49.576;11.024;2022-10-16T03:15:08;98311.22;;;15.77;85.00
72587;BME280;60621;49.576;11.024;2022-10-16T03:16:10;98305.16;;;15.73;85.07
72587;BME280;60621;49.576;11.024;2022-10-16T03:17:11;98310.06;;;15.74;85.19
72587;BME280;60621;49.576;11.024;2022-10-16T03:18:14;98307.41;;;15.74;85.22
72587;BME280;60621;49.576;11.024;2022-10-16T03:19:17;98300.25;;;15.68;85.43
72587;BME280;60621;49.576;11.024;2022-10-16T03:20:18;98306.72;;;15.67;85.34
72587;BME280;60621;49.576;11.024;2022-10-16T03:21:20;98304.41;;;15.61;85.66
72587;BME280;60621;49.576;11.024;2022-10-16T03:22:22;98308.22;;;15.60;85.67
72587;BME280;60621;49.576;11.024;2022-10-16T03:23:23;98306.72;;;15.56;85.77
72587;BME280;60621;49.576;11.024;2022-10-16T03:24:25;98305.97;;;15.52;86.34
72587;BME280;60621;49.576;11.024;2022-10-16T03:25:27;98301.38;;;15.59;86.21
72587;BME280;60621;49.576;11.024;2022-10-16T03:26:28;98302.91;;;15.64;85.98
72587;BME280;60621;49.576;11.024;2022-10-16T03:27:29;98304.00;;;15.70;85.17
72587;BME280;60621;49.576;11.024;2022-10-16T03:28:31;98307.06;;;15.72;85.35
72587;BME280;60621;49.576;11.024;2022-10-16T03:29:32;98304.00;;;15.70;85.32
72587;BME280;60621;49.576;11.024;2022-10-16T03:30:34;98305.50;;;15.75;85.32
72587;BME280;60621;49.576;11.024;2022-10-16T03:31:35;98305.91;;;15.77;85.09
72587;BME280;60621;49.576;11.024;2022-10-16T03:32:37;98304.75;;;15.74;85.17
72587;BME280;60621;49.576;11.024;2022-10-16T03:33:39;98312.34;;;15.76;85.17
72587;BME280;60621;49.576;11.024;2022-10-16T03:34:40;98310.41;;;15.80;84.94
72587;BME280;60621;49.576;11.024;2022-10-16T03:35:42;98302.84;;;15.75;85.27
72587;BME280;60621;49.576;11.024;2022-10-16T03:36:43;98311.56;;;15.82;84.96
72587;BME280;60621;49.576;11.024;2022-10-16T03:37:45;98308.91;;;15.82;84.68
72587;BME280;60621;49.576;11.024;2022-10-16T03:38:46;98311.22;;;15.73;84.90
72587;BME280;60621;49.576;11.024;2022-10-16T03:39:48;98312.75;;;15.71;85.05
72587;BME280;60621;49.576;11.024;2022-10-16T03:40:49;98313.13;;;15.69;85.22
72587;BME280;60621;49.576;11.024;2022-10-16T03:41:51;98309.31;;;15.74;85.28
72587;BME280;60621;49.576;11.024;2022-10-16T03:42:52;98310.84;;;15.75;85.06
72587;BME280;60621;49.576;11.024;2022-10-16T03:43:56;98308.97;;;15.68;85.31
72587;BME280;60621;49.576;11.024;2022-10-16T03:44:57;98308.59;;;15.66;85.37
72587;BME280;60621;49.576;11.024;2022-10-16T03:45:59;98312.00;;;15.63;85.62
72587;BME280;60621;49.576;11.024;2022-10-16T03:47:01;98320.78;;;15.53;86.21
72587;BME280;60621;49.576;11.024;2022-10-16T03:48:02;98314.34;;;15.50;86.31
72587;BME280;60621;49.576;11.024;2022-10-16T03:49:04;98321.91;;;15.52;86.50
72587;BME280;60621;49.576;11.024;2022-10-16T03:50:10;98315.06;;;15.58;86.32
72587;BME280;60621;49.576;11.024;2022-10-16T03:51:11;98319.22;;;15.62;86.07
72587;BME280;60621;49.576;11.024;2022-10-16T03:52:13;98324.94;;;15.65;85.91
72587;BME280;60621;49.576;11.024;2022-10-16T03:53:15;98332.91;;;15.61;86.18
72587;BME280;60621;49.576;11.024;2022-10-16T03:54:16;98330.28;;;15.57;86.34
72587;BME280;60621;49.576;11.024;2022-10-16T03:55:18;98324.94;;;15.57;86.30
72587;BME280;60621;49.576;11.024;2022-10-16T03:56:20;98323.06;;;15.54;86.43
72587;BME280;60621;49.576;11.024;2022-10-16T03:57:21;98305.63;;;15.46;86.86
72587;BME280;60621;49.576;11.024;2022-10-16T03:58:23;98310.91;;;15.53;86.82
72587;BME280;60621;49.576;11.024;2022-10-16T03:59:24;98302.94;;;15.50;86.64
72587;BME280;60621;49.576;11.024;2022-10-16T04:00:26;98318.53;;;15.48;86.94
72587;BME280;60621;49.576;11.024;2022-10-16T04:01:28;98309.03;;;15.50;86.81
72587;BME280;60621;49.576;11.024;2022-10-16T04:02:29;98313.56;;;15.53;86.69
72587;BME280;60621;49.576;11.024;2022-10-16T04:03:31;98305.22;;;15.51;86.71
72587;BME280;60621;49.576;11.024;2022-10-16T04:04:32;98312.81;;;15.53;86.99
72587;BME280;60621;49.576;11.024;2022-10-16T04:05:34;98313.53;;;15.57;86.83
72587;BME280;60621;49.576;11.024;2022-10-16T04:06:36;98319.66;;;15.50;86.87
72587;BME280;60621;49.576;11.024;2022-10-16T04:07:37;98322.66;;;15.52;87.07
72587;BME280;60621;49.576;11.024;2022-10-16T04:08:39;98330.28;;;15.50;86.71
72587;BME280;60621;49.576;11.024;2022-10-16T04:09:40;98324.59;;;15.48;87.16
72587;BME280;60621;49.576;11.024;2022-10-16T04:10:43;98328.38;;;15.51;86.88
72587;BME280;60621;49.576;11.024;2022-10-16T04:11:44;98332.53;;;15.55;86.81
72587;BME280;60621;49.576;11.024;2022-10-16T04:12:46;98338.25;;;15.50;86.76
72587;BME280;60621;49.576;11.024;2022-10-16T04:13:47;98336.38;;;15.47;87.05
72587;BME280;60621;49.576;11.024;2022-10-16T04:14:49;98339.81;;;15.48;87.25
72587;BME280;60621;49.576;11.024;2022-10-16T04:15:51;98338.66;;;15.49;87.22
72587;BME280;60621;49.576;11.024;2022-10-16T04:16:52;98343.56;;;15.54;86.93
72587;BME280;60621;49.576;11.024;2022-10-16T04:17:54;98349.25;;;15.52;87.07
72587;BME280;60621;49.576;11.024;2022-10-16T04:18:55;98347.38;;;15.49;87.06
72587;BME280;60621;49.576;11.024;2022-10-16T04:19:57;98355.34;;;15.49;87.08
72587;BME280;60621;49.576;11.024;2022-10-16T04:21:05;98348.13;;;15.53;86.86
72587;BME280;60621;49.576;11.024;2022-10-16T04:22:07;98349.25;;;15.52;86.97
72587;BME280;60621;49.576;11.024;2022-10-16T04:23:09;98345.09;;;15.51;87.12
72587;BME280;60621;49.576;11.024;2022-10-16T04:24:10;98346.97;;;15.58;86.92
72587;BME280;60621;49.576;11.024;2022-10-16T04:25:13;98341.66;;;15.54;86.79
72587;BME280;60621;49.576;11.024;2022-10-16T04:26:14;98344.31;;;15.58;86.68
72587;BME280;60621;49.576;11.024;2022-10-16T04:27:16;98350.00;;;15.56;86.66
72587;BME280;60621;49.576;11.024;2022-10-16T04:28:17;98346.97;;;15.54;86.64
72587;BME280;60621;49.576;11.024;2022-10-16T04:29:19;98346.59;;;15.56;86.77
72587;BME280;60621;49.576;11.024;2022-10-16T04:30:21;98351.91;;;15.56;86.87
72587;BME280;60621;49.576;11.024;2022-10-16T04:31:23;98345.84;;;15.55;86.68
72587;BME280;60621;49.576;11.024;2022-10-16T04:32:25;98349.25;;;15.63;86.34
72587;BME280;60621;49.576;11.024;2022-10-16T04:33:27;98350.78;;;15.64;86.30
72587;BME280;60621;49.576;11.024;2022-10-16T04:34:28;98341.28;;;15.56;86.73
72587;BME280;60621;49.576;11.024;2022-10-16T04:35:30;98341.66;;;15.58;86.89
72587;BME280;60621;49.576;11.024;2022-10-16T04:36:32;98345.44;;;15.57;86.69
72587;BME280;60621;49.576;11.024;2022-10-16T04:37:33;98349.66;;;15.54;87.03
72587;BME280;60621;49.576;11.024;2022-10-16T04:38:35;98336.34;;;15.58;86.68
72587;BME280;60621;49.576;11.024;2022-10-16T04:39:38;98342.03;;;15.60;86.68
72587;BME280;60621;49.576;11.024;2022-10-16T04:40:42;98351.16;;;15.59;86.58
72587;BME280;60621;49.576;11.024;2022-10-16T04:41:43;98344.31;;;15.65;86.24
72587;BME280;60621;49.576;11.024;2022-10-16T04:42:45;98340.88;;;15.65;86.30
72587;BME280;60621;49.576;11.024;2022-10-16T04:43:46;98338.97;;;15.61;86.57
72587;BME280;60621;49.576;11.024;2022-10-16T04:44:48;98343.19;;;15.55;86.76
72587;BME280;60621;49.576;11.024;2022-10-16T04:45:49;98344.69;;;15.60;86.89
72587;BME280;60621;49.576;11.024;2022-10-16T04:46:52;98335.19;;;15.62;86.71
72587;BME280;60621;49.576;11.024;2022-10-16T04:47:57;98346.59;;;15.67;86.57
72587;BME280;60621;49.576;11.024;2022-10-16T04:48:58;98349.22;;;15.70;86.30
72587;BME280;60621;49.576;11.024;2022-10-16T04:50:00;98345.41;;;15.71;86.21
72587;BME280;60621;49.576;11.024;2022-10-16T04:51:04;98344.31;;;15.65;86.22
72587;BME280;60621;49.576;11.024;2022-10-16T04:52:05;98343.16;;;15.70;86.14
72587;BME280;60621;49.576;11.024;2022-10-16T04:53:07;98344.28;;;15.72;86.02
72587;BME280;60621;49.576;11.024;2022-10-16T04:54:09;98341.63;;;15.72;86.15
72587;BME280;60621;49.576;11.024;2022-10-16T04:55:10;98339.31;;;15.78;85.97
72587;BME280;60621;49.576;11.024;2022-10-16T04:56:12;98339.66;;;15.87;85.41
72587;BME280;60621;49.576;11.024;2022-10-16T04:57:14;98343.81;;;15.88;85.04
72587;BME280;60621;49.576;11.024;2022-10-16T04:58:15;98339.66;;;15.83;85.19
72587;BME280;60621;49.576;11.024;2022-10-16T04:59:18;98345.38;;;15.82;85.60
72587;BME280;60621;49.576;11.024;2022-10-16T05:00:20;98343.09;;;15.80;85.54
72587;BME280;60621;49.576;11.024;2022-10-16T05:01:21;98343.09;;;15.80;nan
72587;BME280;60621;49.576;11.024;2022-10-16T05:02:23;98346.91;;;15.83;85.38
72587;BME280;60621;49.576;11.024;2022-10-16T05:03:24;98339.66;;;15.83;85.51
72587;BME280;60621;49.576;11.024;2022-10-16T05:04:26;98334.72;;;15.85;85.42
72587;BME280;60621;49.576;11.024;2022-10-16T05:05:27;98340.00;;;15.89;85.11
72587;BME280;60621;49.576;11.024;2022-10-16T05:06:30;98347.22;;;15.92;85.06
72587;BME280;60621;49.576;11.024;2022-10-16T05:07:32;98346.06;;;15.93;84.95
72587;BME280;60621;49.576;11.024;2022-10-16T05:08:34;98346.84;;;15.94;84.85
72587;BME280;60621;49.576;11.024;2022-10-16T05:09:35;98354.44;;;15.95;84.98
72587;BME280;60621;49.576;11.024;2022-10-16T05:10:37;98349.09;;;15.99;84.76
72587;BME280;60621;49.576;11.024;2022-10-16T05:11:39;98351.38;;;16.00;84.61
72587;BME280;60621;49.576;11.024;2022-10-16T05:12:43;98351.75;;;15.99;84.43
72587;BME280;60621;49.576;11.024;2022-10-16T05:13:44;98351.75;;;15.99;84.49
72587;BME280;60621;49.576;11.024;2022-10-16T05:14:46;98347.56;;;15.98;84.49
72587;BME280;60621;49.576;11.024;2022-10-16T05:15:48;98350.63;;;15.96;84.44
72587;BME280;60621;49.576;11.024;2022-10-16T05:16:49;98350.22;;;16.01;84.30
72587;BME280;60621;49.576;11.024;2022-10-16T05:17:53;98353.22;;;16.07;83.99
72587;BME280;60621;49.576;11.024;2022-10-16T05:18:55;98350.22;;;16.05;84.03
72587;BME280;60621;49.576;11.024;2022-10-16T05:20:16;98350.97;;;16.02;84.12
72587;BME280;60621;49.576;11.024;2022-10-16T05:21:18;98352.50;;;15.99;84.15
72587;BME280;60621;49.576;11.024;2022-10-16T05:22:20;98353.31;;;15.89;84.46
72587;BME280;60621;49.576;11.024;2022-10-16T05:23:21;98350.66;;;15.89;84.84
72587;BME280;60621;49.576;11.024;2022-10-16T05:24:23;98359.38;;;15.90;84.72
72587;BME280;60621;49.576;11.024;2022-10-16T05:25:24;98355.97;;;15.89;84.67
72587;BME280;60621;49.576;11.024;2022-10-16T05:26:26;98362.81;;;15.90;84.80
72587;BME280;60621;49.576;11.024;2022-10-16T05:27:28;98367.38;;;15.90;84.65
72587;BME280;60621;49.576;11.024;2022-10-16T05:28:30;98364.34;;;15.87;84.82
72587;BME280;60621;49.576;11.024;2022-10-16T05:29:31;98365.13;;;15.84;85.07
72587;BME280;60621;49.576;11.024;2022-10-16T05:30:33;98370.06;;;15.86;84.86
72587;BME280;60621;49.576;11.024;2022-10-16T05:31:35;98363.59;;;15.87;84.80
72587;BME280;60621;49.576;11.024;2022-10-16T05:32:36;98365.50;;;15.83;84.84
72587;BME280;60621;49.576;11.024;2022-10-16T05:33:38;98367.03;;;15.84;84.89
72587;BME280;60621;49.576;11.024;2022-10-16T05:34:39;98378.03;;;15.86;84.89
72587;BME280;60621;49.576;11.024;2022-10-16T05:35:41;98375.75;;;15.88;84.91
72587;BME280;60621;49.576;11.024;2022-10-16T05:36:42;98376.50;;;15.88;84.57
72587;BME280;60621;49.576;11.024;2022-10-16T05:37:46;98393.63;;;15.80;84.89
72587;BME280;60621;49.576;11.024;2022-10-16T05:38:50;98395.94;;;15.78;85.39
72587;BME280;60621;49.576;11.024;2022-10-16T05:39:51;98394.78;;;15.79;85.15
72587;BME280;60621;49.576;11.024;2022-10-16T05:40:53;98399.72;;;15.81;85.11
72587;BME280;60621;49.576;11.024;2022-10-16T05:41:55;98400.47;;;15.81;85.18
72587;BME280;60621;49.576;11.024;2022-10-16T05:42:56;98394.78;;;15.83;84.95
72587;BME280;60621;49.576;11.024;2022-10-16T05:43:58;98394.00;;;15.82;85.03
72587;BME280;60621;49.576;11.024;2022-10-16T05:44:59;98398.53;;;15.85;84.92
72587;BME280;60621;49.576;11.024;2022-10-16T05:46:05;98395.16;;;15.78;85.13